createdAt,value
2019-05-20T05:57:57.155Z,47.64
2019-05-20T05:58:34.432Z,47.21
2019-05-20T05:59:11.811Z,46.57
2019-05-20T05:59:47.900Z,45.68
2019-05-20T06:00:28.097Z,44.90
2019-05-20T06:01:06.418Z,44.39
2019-05-20T06:01:42.942Z,43.87
2019-05-20T06:02:19.923Z,43.43
2019-05-20T06:02:57.300Z,43.02
2019-05-20T06:03:34.165Z,42.66
2019-05-20T06:04:11.528Z,42.33
2019-05-20T06:04:48.017Z,42.01
2019-05-20T06:05:24.661Z,41.72
2019-05-20T06:06:12.376Z,41.46
2019-05-20T06:06:41.015Z,41.22
2019-05-20T06:07:17.485Z,40.96
2019-05-20T06:07:54.760Z,40.71
2019-05-20T06:08:31.837Z,40.51
2019-05-20T06:09:08.798Z,40.31
2019-05-20T06:09:46.190Z,40.11
2019-05-20T06:10:23.140Z,39.95
2019-05-20T06:10:59.808Z,39.79
2019-05-20T06:11:37.069Z,39.62
2019-05-20T06:12:13.866Z,39.48
2019-05-20T06:12:50.487Z,39.32
2019-05-20T06:13:28.904Z,39.20
2019-05-20T06:14:07.595Z,39.03
2019-05-20T06:14:44.068Z,38.91
2019-05-20T06:15:20.912Z,38.79
2019-05-20T06:15:57.776Z,38.68
2019-05-20T06:16:36.838Z,38.58
2019-05-20T06:17:13.247Z,38.64
2019-05-20T06:17:51.069Z,38.37
2019-05-20T06:18:28.036Z,38.27
2019-05-20T06:19:05.338Z,38.18
2019-05-20T06:19:42.198Z,38.12
2019-05-20T06:20:19.046Z,38.00
2019-05-20T06:20:56.362Z,37.93
2019-05-20T06:21:33.742Z,37.81
2019-05-20T06:22:10.506Z,37.74
2019-05-20T06:22:47.691Z,37.65
2019-05-20T06:23:24.153Z,37.58
2019-05-20T06:24:00.664Z,37.51
2019-05-20T06:24:38.089Z,37.42
2019-05-20T06:25:15.401Z,37.34
2019-05-20T06:25:52.108Z,37.26
2019-05-20T06:26:29.462Z,37.13
2019-05-20T06:27:06.474Z,37.05
2019-05-20T06:27:43.427Z,37.02
2019-05-20T06:28:20.401Z,36.96
2019-05-20T06:29:02.744Z,36.87
2019-05-20T06:29:37.511Z,36.12
2019-05-20T06:30:15.402Z,36.21
2019-05-20T06:30:55.204Z,36.28
2019-05-20T06:31:33.736Z,36.18
2019-05-20T06:32:12.081Z,36.30
2019-05-20T06:32:49.510Z,36.30
2019-05-20T06:33:25.840Z,36.32
2019-05-20T06:34:02.871Z,36.21
2019-05-20T06:34:42.544Z,36.24
2019-05-20T06:35:20.281Z,36.29
2019-05-20T06:36:00.401Z,36.29
2019-05-20T06:36:37.567Z,36.30
2019-05-20T06:37:25.387Z,36.12
2019-05-20T06:38:03.350Z,36.12
2019-05-20T06:38:42.004Z,36.15
2019-05-20T06:39:20.879Z,36.18
2019-05-20T06:39:57.570Z,36.18
2019-05-20T06:40:34.575Z,36.14
2019-05-20T06:41:11.964Z,36.09
2019-05-20T06:41:49.302Z,36.09
2019-05-20T06:42:26.976Z,36.08
2019-05-20T06:43:04.536Z,36.08
2019-05-20T06:43:42.809Z,36.08
2019-05-20T06:44:19.943Z,36.15
2019-05-20T06:44:57.614Z,36.20
2019-05-20T06:45:35.975Z,36.16
2019-05-20T06:46:13.678Z,36.14
2019-05-20T06:46:51.307Z,36.07
2019-05-20T06:47:28.318Z,36.14
2019-05-20T06:48:05.710Z,36.17
2019-05-20T06:48:43.381Z,36.13
2019-05-20T06:49:19.287Z,36.15
2019-05-20T06:49:56.371Z,36.24
2019-05-20T06:50:33.540Z,36.22
2019-05-20T06:51:10.274Z,36.44
2019-05-20T06:51:46.935Z,36.44
2019-05-20T06:52:35.446Z,36.08
2019-05-20T06:53:02.912Z,36.10
2019-05-20T06:53:40.455Z,36.04
2019-05-20T06:54:18.120Z,35.96
2019-05-20T06:54:55.274Z,35.95
2019-05-20T06:55:33.365Z,35.96
2019-05-20T06:56:11.290Z,35.90
2019-05-20T06:56:48.852Z,35.92
2019-05-20T06:57:26.850Z,35.90
2019-05-20T06:58:04.424Z,35.83
2019-05-20T06:58:40.884Z,35.76
2019-05-20T06:59:17.526Z,35.65
2019-05-20T06:59:54.473Z,35.72
2019-05-20T07:00:35.880Z,35.72
2019-05-20T07:01:14.400Z,35.82
2019-05-20T07:01:50.875Z,35.83
2019-05-20T07:02:28.286Z,35.86
2019-05-20T16:28:28.920Z,43.71
2019-05-20T16:29:06.534Z,43.42
2019-05-20T16:29:44.255Z,43.21
2019-05-20T16:30:21.257Z,43.21
2019-05-20T16:30:58.449Z,43.06
2019-05-20T16:31:36.869Z,42.80
2019-05-20T16:32:14.038Z,42.61
2019-05-20T16:32:51.411Z,42.40
2019-05-20T16:33:27.937Z,42.33
2019-05-20T16:34:04.701Z,42.22
2019-05-20T16:34:42.267Z,42.07
2019-05-20T16:35:19.363Z,41.81
2019-05-20T16:35:56.884Z,41.82
2019-05-20T16:36:34.280Z,41.82
2019-05-20T16:37:13.264Z,41.70
2019-05-20T16:37:51.543Z,41.45
2019-05-20T16:38:28.441Z,41.36
2019-05-20T16:39:06.311Z,41.36
2019-05-20T16:39:43.461Z,41.10
2019-05-20T16:40:19.984Z,41.09
2019-05-20T16:40:57.332Z,41.20
2019-05-20T16:41:34.266Z,41.11
2019-05-20T16:42:11.481Z,40.97
2019-05-20T16:42:47.722Z,40.95
2019-05-20T16:43:24.470Z,40.84
2019-05-20T16:44:01.711Z,40.84
2019-05-20T16:44:39.407Z,40.81
2019-05-20T16:45:16.380Z,40.73
2019-05-20T16:45:53.745Z,40.59
2019-05-20T16:46:30.701Z,40.53
2019-05-20T16:47:07.951Z,40.49
2019-05-20T16:47:44.971Z,40.42
2019-05-20T16:48:22.529Z,40.43
2019-05-20T16:48:59.517Z,40.28
2019-05-20T16:49:36.762Z,40.16
2019-05-20T16:50:14.265Z,40.16
2019-05-20T16:50:50.626Z,40.03
2019-05-20T16:51:27.526Z,39.69
2019-05-20T16:52:04.728Z,39.81
2019-05-20T16:52:41.463Z,39.81
2019-05-20T16:53:17.800Z,40.42
2019-05-20T16:53:54.264Z,40.21
2019-05-20T16:54:31.447Z,43.40
2019-05-20T16:55:07.861Z,43.40
2019-05-20T16:55:46.391Z,43.44
2019-05-20T16:56:22.356Z,44.04
2019-05-20T16:56:59.316Z,44.04
2019-05-20T16:57:35.698Z,44.60
2019-05-20T16:58:12.294Z,45.45
2019-05-20T16:58:49.548Z,45.45
2019-05-20T16:59:26.484Z,45.85
2019-05-20T17:00:02.329Z,46.49
2019-05-20T17:00:40.772Z,46.49
2019-05-20T17:01:17.765Z,46.40
2019-05-20T17:01:54.502Z,46.80
2019-05-20T17:02:31.266Z,46.41
2019-05-20T17:03:08.350Z,46.68
2019-05-20T17:03:46.606Z,46.84
2019-05-20T17:04:23.706Z,46.84
2019-05-20T17:05:00.323Z,46.67
2019-05-20T17:05:38.798Z,46.63
2019-05-20T17:06:15.976Z,46.69
2019-05-20T17:06:53.086Z,47.22
2019-05-20T17:07:29.367Z,47.05
2019-05-20T17:08:06.361Z,46.86
2019-05-20T17:08:42.700Z,46.91
2019-05-20T17:09:19.708Z,47.01
2019-05-20T17:09:56.704Z,47.43
2019-05-20T17:10:33.646Z,47.21
2019-05-20T17:11:10.282Z,48.08
2019-05-20T17:11:47.472Z,48.08
2019-05-20T17:12:23.350Z,47.28
2019-05-20T17:12:59.647Z,47.60
2019-05-20T17:13:35.499Z,47.47
2019-05-20T17:14:12.489Z,47.47
2019-05-20T17:14:48.290Z,47.80
2019-05-20T17:15:25.264Z,48.11
2019-05-20T17:16:02.290Z,47.28
2019-05-20T17:16:39.342Z,47.47
2019-05-20T17:17:16.234Z,47.09
2019-05-20T17:17:53.289Z,47.55
2019-05-20T17:18:29.768Z,47.13
2019-05-20T17:19:06.299Z,47.49
2019-05-20T17:19:43.252Z,47.50
2019-05-20T17:20:20.269Z,47.74
2019-05-20T17:20:57.295Z,48.05
2019-05-20T17:21:34.612Z,47.32
2019-05-20T17:22:11.284Z,47.48
2019-05-20T17:22:49.280Z,47.36
2019-05-20T17:23:25.905Z,47.39
2019-05-20T17:24:02.869Z,47.21
2019-05-20T17:24:39.247Z,47.47
2019-05-20T17:25:16.338Z,47.79
2019-05-20T17:25:52.882Z,48.09
2019-05-20T17:26:29.834Z,48.28
2019-05-20T17:27:06.464Z,48.36
2019-05-20T17:27:43.190Z,48.44
2019-05-20T17:28:19.969Z,48.55
2019-05-20T17:28:56.456Z,48.58
2019-05-20T17:29:32.144Z,48.60
2019-05-20T17:30:09.396Z,48.60
2019-05-20T17:30:47.265Z,48.62
2019-05-20T17:31:26.529Z,48.57
2019-05-20T17:32:02.860Z,48.55
2019-05-20T17:32:40.099Z,48.52
2019-05-20T17:33:16.241Z,48.50
2019-05-20T17:33:53.292Z,48.45
2019-05-20T17:34:29.760Z,48.40
2019-05-20T17:35:06.706Z,48.35
2019-05-20T17:35:43.638Z,48.30
2019-05-20T17:36:20.642Z,48.27
2019-05-20T17:36:57.092Z,48.25
2019-05-20T17:37:34.378Z,48.20
2019-05-20T17:38:11.295Z,48.19
